createdAt,value
2023-03-27T00:05:30.724Z,4.10
2023-03-27T00:11:32.506Z,4.50
2023-03-27T00:17:34.390Z,3.10
2023-03-27T00:23:36.030Z,2.50
2023-03-27T00:29:39.047Z,2.80
2023-03-27T00:35:47.884Z,2.80
2023-03-27T00:41:54.803Z,2.30
2023-03-27T00:48:02.584Z,2.50
2023-03-27T00:54:05.520Z,1.90
2023-03-27T01:00:13.085Z,2.00
2023-03-27T01:06:16.192Z,1.70
2023-03-27T01:12:24.712Z,1.80
2023-03-27T01:18:33.639Z,2.30
2023-03-27T01:24:41.566Z,1.90
2023-03-27T01:30:55.722Z,2.10
2023-03-27T01:37:05.805Z,2.40
2023-03-27T01:43:12.623Z,2.00
2023-03-27T01:49:19.577Z,1.80
2023-03-27T01:55:24.804Z,2.20
2023-03-27T02:01:37.167Z,2.50
2023-03-27T02:07:42.218Z,2.60
2023-03-27T02:13:53.915Z,3.40
2023-03-27T02:20:04.006Z,3.20
2023-03-27T02:26:05.956Z,2.90
2023-03-27T02:32:15.306Z,3.70
2023-03-27T02:38:28.525Z,4.20
2023-03-27T02:44:33.823Z,4.80
2023-03-27T02:50:50.462Z,5.30
2023-03-27T02:56:55.326Z,5.60
2023-03-27T03:03:16.937Z,6.40
2023-03-27T03:09:24.826Z,6.20
2023-03-27T03:15:26.758Z,6.50
2023-03-27T03:21:28.248Z,7.10
2023-03-27T03:27:30.494Z,7.50
2023-03-27T03:33:37.542Z,6.80
2023-03-27T03:39:39.172Z,6.60
2023-03-27T03:45:41.432Z,6.50
2023-03-27T03:51:42.982Z,7.60
2023-03-27T03:57:46.712Z,7.50
2023-03-27T04:03:53.903Z,7.20
2023-03-27T04:09:58.668Z,7.00
2023-03-27T04:22:07.670Z,6.40
2023-03-27T04:28:17.697Z,6.60
2023-03-27T04:34:23.575Z,6.20
2023-03-27T04:40:48.652Z,6.90
2023-03-27T04:46:51.430Z,6.50
2023-03-27T04:52:59.255Z,6.50
2023-03-27T04:59:03.998Z,6.40
2023-03-27T05:05:05.918Z,6.30
2023-03-27T05:11:12.098Z,7.60
2023-03-27T05:17:19.541Z,7.50
2023-03-27T05:23:21.541Z,5.50
2023-03-27T05:29:23.672Z,5.00
2023-03-27T05:35:32.187Z,4.90
2023-03-27T05:41:36.404Z,6.00
2023-03-27T05:47:53.498Z,6.90
2023-03-27T05:53:55.550Z,8.40
2023-03-27T06:00:15.606Z,10.40
2023-03-27T06:06:22.166Z,10.00
2023-03-27T06:18:39.952Z,7.70
2023-03-27T06:24:42.029Z,6.90
2023-03-27T06:30:45.466Z,6.60
2023-03-27T06:37:06.368Z,5.60
2023-03-27T06:43:18.230Z,5.50
2023-03-27T06:49:32.223Z,6.20
2023-03-27T06:55:39.185Z,6.10
2023-03-27T07:01:43.105Z,5.90
2023-03-27T07:08:21.184Z,6.90
2023-03-27T07:14:25.834Z,7.40
2023-03-27T07:20:29.280Z,7.50
2023-03-27T07:32:47.624Z,7.80
2023-03-27T07:38:49.380Z,7.60
2023-03-27T07:44:57.498Z,7.60
2023-03-27T07:51:10.798Z,6.80
2023-03-27T08:03:27.643Z,6.70
2023-03-27T08:09:29.929Z,7.90
2023-03-27T08:15:33.331Z,8.80
2023-03-27T08:21:36.248Z,8.00
2023-03-27T08:27:37.863Z,7.80
2023-03-27T08:33:41.228Z,10.40
2023-03-27T08:39:46.656Z,10.50
2023-03-27T08:46:01.552Z,8.30
2023-03-27T08:52:09.857Z,7.30
2023-03-27T08:58:20.425Z,8.20
2023-03-27T09:05:00.155Z,7.00
2023-03-27T09:11:05.773Z,6.00
2023-03-27T09:17:46.416Z,5.10
2023-03-27T09:23:53.469Z,4.70
2023-03-27T09:30:33.914Z,5.00
2023-03-27T09:36:43.837Z,4.70
2023-03-27T09:42:47.972Z,5.80
2023-03-27T09:49:00.841Z,4.50
2023-03-27T09:55:04.181Z,4.50
2023-03-27T10:01:27.042Z,4.90
2023-03-27T10:07:30.134Z,4.20
2023-03-27T10:13:46.041Z,4.60
2023-03-27T10:20:04.797Z,5.50
2023-03-27T10:26:13.164Z,6.70
2023-03-27T10:32:42.454Z,10.20
2023-03-27T10:39:12.239Z,8.70
2023-03-27T10:45:30.725Z,8.70
2023-03-27T10:51:46.429Z,7.30
2023-03-27T10:57:57.432Z,6.90
2023-03-27T11:04:06.591Z,6.60
2023-03-27T11:10:19.587Z,7.50
2023-03-27T11:16:38.587Z,9.60
2023-03-27T11:22:46.571Z,10.60
2023-03-27T11:29:16.244Z,10.00
2023-03-27T11:35:24.361Z,10.80
2023-03-27T11:41:38.864Z,11.40
2023-03-27T11:47:49.561Z,11.60
2023-03-27T11:54:04.721Z,11.20
2023-03-27T12:00:31.285Z,10.90
2023-03-27T12:06:35.488Z,7.70
2023-03-27T12:12:49.456Z,6.80
2023-03-27T12:19:05.856Z,7.30
2023-03-27T12:25:16.283Z,5.40
2023-03-27T12:31:49.073Z,4.30
2023-03-27T12:37:58.482Z,4.70
2023-03-27T12:44:03.003Z,4.70
2023-03-27T12:50:33.421Z,4.00
2023-03-27T12:56:36.544Z,3.30
2023-03-27T13:03:06.261Z,2.70
2023-03-27T13:09:34.737Z,2.40
2023-03-27T13:15:46.384Z,2.30
2023-03-27T13:22:10.458Z,2.10
2023-03-27T13:28:18.149Z,2.30
2023-03-27T13:34:38.624Z,2.50
2023-03-27T13:40:45.313Z,2.20
2023-03-27T13:47:24.681Z,2.80
2023-03-27T13:53:53.678Z,2.40
2023-03-27T14:00:32.509Z,2.80
2023-03-27T14:07:04.639Z,2.20
2023-03-27T14:13:26.114Z,2.40
2023-03-27T14:19:58.957Z,2.30
2023-03-27T14:26:19.442Z,2.60
2023-03-27T14:32:22.015Z,2.40
2023-03-27T14:38:35.278Z,2.30
2023-03-27T14:44:37.255Z,2.30
2023-03-27T14:50:50.988Z,2.30
2023-03-27T14:56:59.473Z,2.30
2023-03-27T15:03:15.660Z,2.80
2023-03-27T15:09:18.616Z,2.40
2023-03-27T15:15:42.293Z,2.20
2023-03-27T15:21:50.225Z,2.30
2023-03-27T15:27:55.458Z,2.60
2023-03-27T15:34:15.316Z,3.00
2023-03-27T15:40:32.337Z,2.80
2023-03-27T15:46:50.681Z,2.60
2023-03-27T15:52:54.325Z,2.90
2023-03-27T15:59:03.084Z,2.20
2023-03-27T16:05:05.286Z,2.80
2023-03-27T16:11:06.767Z,2.50
2023-03-27T16:17:19.883Z,2.70
2023-03-27T16:23:21.502Z,2.20
2023-03-27T16:29:23.269Z,2.80
2023-03-27T16:35:26.118Z,2.30
2023-03-27T16:41:28.001Z,2.30
2023-03-27T16:47:30.723Z,2.40
2023-03-27T16:53:32.454Z,2.30
2023-03-27T16:59:36.767Z,2.20
2023-03-27T17:05:38.491Z,1.50
2023-03-27T17:11:40.516Z,1.60
2023-03-27T17:17:42.447Z,1.70
2023-03-27T17:23:47.534Z,1.70
2023-03-27T17:29:49.053Z,1.70
2023-03-27T17:35:50.740Z,1.50
2023-03-27T17:41:53.053Z,1.50
2023-03-27T17:47:55.137Z,2.10
2023-03-27T17:53:57.096Z,1.60
2023-03-27T17:59:58.515Z,2.10
2023-03-27T18:06:02.675Z,2.40
2023-03-27T18:12:04.609Z,2.50
2023-03-27T18:18:07.420Z,2.50
2023-03-27T18:24:09.441Z,2.10
2023-03-27T18:30:14.195Z,2.40
2023-03-27T18:36:16.206Z,2.30
2023-03-27T18:42:18.210Z,3.10
2023-03-27T18:48:19.968Z,1.90
2023-03-27T18:54:22.330Z,2.40
2023-03-27T19:00:24.259Z,2.40
2023-03-27T19:06:26.027Z,2.00
2023-03-27T19:12:27.524Z,2.00
2023-03-27T19:18:58.256Z,2.10
2023-03-27T19:25:26.942Z,2.70
2023-03-27T19:31:29.089Z,2.60
2023-03-27T19:37:33.723Z,2.40
2023-03-27T19:43:36.156Z,2.40
2023-03-27T19:49:37.789Z,2.40
2023-03-27T19:56:12.011Z,2.30
2023-03-27T20:02:14.402Z,2.60
2023-03-27T20:08:20.034Z,3.20
2023-03-27T20:14:22.298Z,3.00
2023-03-27T20:20:24.263Z,3.20
2023-03-27T20:26:28.568Z,3.00
2023-03-27T20:32:56.791Z,2.60
2023-03-27T20:39:03.987Z,2.90
2023-03-27T20:45:06.683Z,3.40
2023-03-27T20:51:16.929Z,3.40
2023-03-27T20:57:26.963Z,3.50
2023-03-27T21:03:31.443Z,3.90
2023-03-27T21:09:37.859Z,3.60
2023-03-27T21:15:45.156Z,4.00
2023-03-27T21:21:52.671Z,3.80
2023-03-27T21:28:15.168Z,4.10
2023-03-27T21:35:15.511Z,4.90
2023-03-27T21:41:23.765Z,5.20
2023-03-27T21:47:46.570Z,5.20
2023-03-27T21:54:01.335Z,5.30
2023-03-27T22:00:09.375Z,4.90
2023-03-27T22:06:20.414Z,5.40
2023-03-27T22:12:31.253Z,5.70
2023-03-27T22:18:38.847Z,5.70
2023-03-27T22:24:40.668Z,5.30
2023-03-27T22:30:50.662Z,5.40
2023-03-27T22:36:57.376Z,5.90
2023-03-27T22:43:03.508Z,5.20
2023-03-27T22:55:11.163Z,5.30
2023-03-27T23:01:13.293Z,5.80
2023-03-27T23:07:17.758Z,6.40
2023-03-27T23:13:23.622Z,5.90
2023-03-27T23:19:25.200Z,6.60
2023-03-27T23:25:27.210Z,6.20
2023-03-27T23:31:29.818Z,6.50
2023-03-27T23:37:37.584Z,5.30
2023-03-27T23:43:46.111Z,6.70
2023-03-27T23:49:48.437Z,6.50
2023-03-27T23:55:50.924Z,6.80
